createdAt,value
2023-05-01T00:01:06.334Z,11.93
2023-05-01T00:03:33.899Z,11.96
2023-05-01T00:06:03.382Z,11.96
2023-05-01T00:08:31.739Z,11.90
2023-05-01T00:11:09.829Z,11.90
2023-05-01T00:13:37.260Z,11.89
2023-05-01T00:16:10.154Z,11.85
2023-05-01T00:18:37.742Z,11.74
2023-05-01T00:21:05.229Z,11.75
2023-05-01T00:23:32.550Z,11.70
2023-05-01T00:25:59.889Z,11.71
2023-05-01T00:28:27.399Z,11.69
2023-05-01T00:30:54.767Z,11.60
2023-05-01T00:33:22.438Z,11.66
2023-05-01T00:35:49.828Z,11.65
2023-05-01T00:38:17.176Z,11.71
2023-05-01T00:40:45.468Z,11.65
2023-05-01T00:43:13.577Z,11.53
2023-05-01T00:45:45.491Z,11.61
2023-05-01T00:48:13.285Z,11.50
2023-05-01T00:50:41.091Z,11.57
2023-05-01T00:53:08.607Z,11.50
2023-05-01T00:55:36.203Z,11.47
2023-05-01T00:58:03.924Z,11.38
2023-05-01T01:00:31.352Z,11.33
2023-05-01T01:02:58.979Z,11.33
2023-05-01T01:05:29.626Z,11.32
2023-05-01T01:07:59.744Z,11.29
2023-05-01T01:10:53.266Z,11.21
2023-05-01T01:13:47.654Z,11.17
2023-05-01T01:16:40.048Z,11.12
2023-05-01T01:19:37.003Z,11.21
2023-05-01T01:22:15.149Z,11.22
2023-05-01T01:24:42.426Z,11.21
2023-05-01T01:27:36.610Z,11.17
2023-05-01T01:30:41.044Z,11.21
2023-05-01T01:33:41.203Z,11.17
2023-05-01T01:36:16.670Z,11.14
2023-05-01T01:38:48.016Z,11.18
2023-05-01T01:41:27.801Z,11.20
2023-05-01T01:44:05.449Z,11.10
2023-05-01T01:46:38.377Z,11.09
2023-05-01T01:49:18.995Z,11.04
2023-05-01T01:51:49.050Z,10.97
2023-05-01T01:54:22.620Z,10.98
2023-05-01T01:56:51.079Z,10.97
2023-05-01T01:59:21.074Z,10.97
2023-05-01T02:01:48.637Z,10.84
2023-05-01T02:04:16.853Z,10.79
2023-05-01T02:06:46.434Z,10.81
2023-05-01T02:09:19.597Z,10.81
2023-05-01T02:11:48.638Z,10.72
2023-05-01T02:14:16.366Z,10.68
2023-05-01T02:16:45.189Z,10.67
2023-05-01T02:19:15.000Z,10.68
2023-05-01T02:21:43.139Z,10.60
2023-05-01T02:24:12.839Z,10.68
2023-05-01T02:26:46.504Z,10.59
2023-05-01T02:29:13.849Z,10.60
2023-05-01T02:31:41.380Z,10.56
2023-05-01T02:34:08.854Z,10.54
2023-05-01T02:36:36.164Z,10.52
2023-05-01T02:39:03.525Z,10.57
2023-05-01T02:41:31.093Z,10.56
2023-05-01T02:44:04.241Z,10.52
2023-05-01T02:46:35.898Z,10.59
2023-05-01T02:49:04.245Z,10.57
2023-05-01T02:51:31.969Z,10.55
2023-05-01T02:53:59.881Z,10.48
2023-05-01T02:56:28.135Z,10.47
2023-05-01T02:58:55.751Z,10.55
2023-05-01T03:01:23.494Z,10.43
2023-05-01T03:03:51.719Z,10.41
2023-05-01T03:06:19.534Z,10.39
2023-05-01T03:08:47.879Z,10.43
2023-05-01T03:11:15.870Z,10.43
2023-05-01T03:13:43.780Z,10.47
2023-05-01T03:16:11.247Z,10.59
2023-05-01T03:18:38.638Z,10.44
2023-05-01T03:21:06.100Z,10.44
2023-05-01T03:23:33.466Z,10.47
2023-05-01T03:26:00.888Z,10.46
2023-05-01T03:28:28.355Z,10.46
2023-05-01T03:30:55.826Z,10.48
2023-05-01T03:33:23.214Z,10.49
2023-05-01T03:36:04.037Z,10.46
2023-05-01T03:38:32.004Z,10.49
2023-05-01T03:41:00.055Z,10.51
2023-05-01T03:43:27.458Z,10.48
2023-05-01T03:45:54.948Z,10.53
2023-05-01T03:48:22.491Z,10.52
2023-05-01T03:50:49.870Z,10.54
2023-05-01T03:53:17.663Z,10.53
2023-05-01T03:55:45.244Z,10.56
2023-05-01T03:58:12.809Z,10.58
2023-05-01T04:00:40.243Z,10.50
2023-05-01T04:03:07.779Z,10.59
2023-05-01T04:05:36.118Z,10.63
2023-05-01T04:08:04.440Z,10.69
2023-05-01T04:10:31.837Z,10.71
2023-05-01T04:12:59.190Z,10.70
2023-05-01T04:15:27.109Z,10.70
2023-05-01T04:17:56.004Z,10.80
2023-05-01T04:20:23.688Z,10.81
2023-05-01T04:22:51.095Z,10.89
2023-05-01T04:25:18.532Z,10.89
2023-05-01T04:27:46.231Z,10.82
2023-05-01T04:30:13.615Z,10.79
2023-05-01T04:32:40.984Z,10.82
2023-05-01T04:35:09.150Z,10.80
2023-05-01T04:37:37.109Z,10.84
2023-05-01T04:40:04.574Z,10.77
2023-05-01T04:42:32.839Z,10.77
2023-05-01T04:45:04.364Z,10.74
2023-05-01T04:47:31.875Z,10.72
2023-05-01T04:49:59.277Z,10.67
2023-05-01T04:52:26.638Z,10.68
2023-05-01T04:54:54.305Z,10.67
2023-05-01T04:57:21.760Z,10.68
2023-05-01T04:59:49.199Z,10.72
2023-05-01T05:02:16.632Z,10.76
2023-05-01T05:04:43.715Z,10.78
2023-05-01T05:07:11.210Z,10.83
2023-05-01T05:09:38.541Z,10.82
2023-05-01T05:12:06.140Z,10.89
2023-05-01T05:14:33.538Z,10.89
2023-05-01T05:17:01.146Z,10.84
2023-05-01T05:19:28.685Z,10.84
2023-05-01T05:21:56.137Z,10.88
2023-05-01T05:24:23.699Z,10.92
2023-05-01T05:26:51.277Z,11.05
2023-05-01T05:29:18.807Z,11.01
2023-05-01T05:31:47.374Z,11.02
2023-05-01T05:34:14.933Z,11.04
2023-05-01T05:36:43.177Z,11.16
2023-05-01T05:39:10.589Z,11.12
2023-05-01T05:41:37.966Z,11.16
2023-05-01T05:44:05.410Z,11.28
2023-05-01T05:46:32.964Z,11.27
2023-05-01T05:49:00.581Z,11.28
2023-05-01T05:51:28.162Z,11.32
2023-05-01T05:53:55.519Z,11.29
2023-05-01T05:56:24.479Z,11.41
2023-05-01T05:58:52.118Z,11.48
2023-05-01T06:01:19.540Z,11.50
2023-05-01T06:03:46.945Z,11.55
2023-05-01T06:06:14.623Z,11.63
2023-05-01T06:08:42.001Z,11.70
2023-05-01T06:11:09.752Z,11.58
2023-05-01T06:13:37.758Z,11.63
2023-05-01T06:16:05.425Z,11.61
2023-05-01T06:18:32.876Z,11.80
2023-05-01T06:21:00.552Z,11.89
2023-05-01T06:23:28.416Z,11.86
2023-05-01T06:25:59.319Z,11.92
2023-05-01T06:28:26.846Z,11.99
2023-05-01T06:30:54.620Z,12.10
2023-05-01T06:33:22.312Z,12.17
2023-05-01T06:35:49.739Z,12.15
2023-05-01T06:38:17.034Z,12.39
2023-05-01T06:40:47.116Z,12.23
2023-05-01T06:43:14.578Z,12.53
2023-05-01T06:45:42.258Z,12.47
2023-05-01T06:48:09.808Z,12.86
2023-05-01T06:50:37.377Z,13.23
2023-05-01T06:53:04.838Z,13.17
2023-05-01T06:55:33.880Z,13.25
2023-05-01T06:58:16.014Z,13.54
2023-05-01T07:00:50.850Z,13.69
2023-05-01T07:03:18.312Z,13.80
2023-05-01T07:05:45.912Z,14.03
2023-05-01T07:08:14.436Z,14.13
2023-05-01T07:10:42.410Z,14.25
2023-05-01T07:13:10.123Z,14.13
2023-05-01T07:15:37.643Z,14.00
2023-05-01T07:18:08.288Z,14.04
2023-05-01T07:20:35.934Z,14.08
2023-05-01T07:23:05.884Z,14.01
2023-05-01T07:25:34.336Z,14.24
2023-05-01T07:28:04.690Z,14.31
2023-05-01T07:30:33.564Z,14.47
2023-05-01T07:33:01.147Z,14.71
2023-05-01T07:35:28.674Z,14.57
2023-05-01T07:37:56.057Z,14.57
2023-05-01T07:40:23.392Z,14.51
2023-05-01T07:42:53.849Z,14.60
2023-05-01T07:45:21.957Z,14.86
2023-05-01T07:47:50.117Z,14.81
2023-05-01T07:50:17.762Z,14.95
2023-05-01T07:52:45.506Z,14.94
2023-05-01T07:55:16.000Z,15.15
2023-05-01T07:57:43.407Z,15.32
2023-05-01T08:00:11.398Z,15.32
2023-05-01T08:02:38.884Z,15.43
2023-05-01T08:05:06.808Z,15.34
2023-05-01T08:07:34.248Z,15.40
2023-05-01T08:10:01.943Z,15.46
2023-05-01T08:12:31.401Z,15.56
2023-05-01T08:14:58.861Z,15.16
2023-05-01T08:17:26.319Z,15.33
2023-05-01T08:19:56.716Z,15.24
2023-05-01T08:22:24.741Z,15.28
2023-05-01T08:24:52.331Z,15.43
2023-05-01T08:27:20.015Z,15.62
2023-05-01T08:29:47.559Z,15.53
2023-05-01T08:32:16.103Z,15.82
2023-05-01T08:34:43.586Z,15.88
2023-05-01T08:37:10.976Z,16.46
2023-05-01T08:39:41.796Z,16.41
2023-05-01T08:42:09.186Z,16.43
2023-05-01T08:44:41.997Z,16.34
2023-05-01T08:47:17.371Z,16.18
2023-05-01T08:49:46.109Z,15.93
2023-05-01T08:52:15.459Z,16.20
2023-05-01T08:54:47.290Z,16.20
2023-05-01T08:57:14.790Z,15.92
2023-05-01T08:59:42.485Z,16.39
2023-05-01T09:02:13.106Z,16.19
2023-05-01T09:04:42.190Z,16.35
2023-05-01T09:07:13.082Z,16.55
2023-05-01T09:09:41.185Z,17.18
2023-05-01T09:12:27.019Z,16.70
2023-05-01T09:14:56.487Z,16.79
2023-05-01T09:17:25.275Z,16.93
2023-05-01T09:19:53.643Z,17.16
2023-05-01T09:22:24.426Z,16.98
2023-05-01T09:24:51.997Z,17.51
2023-05-01T09:27:20.340Z,17.60
2023-05-01T09:29:53.917Z,17.64
2023-05-01T09:32:30.687Z,17.74
2023-05-01T09:35:21.603Z,17.15
2023-05-01T09:37:54.009Z,18.20
2023-05-01T09:40:28.266Z,18.52
2023-05-01T09:42:56.473Z,18.25
2023-05-01T09:45:24.396Z,18.03
2023-05-01T09:47:52.000Z,18.53
2023-05-01T09:50:33.737Z,18.41
2023-05-01T09:53:06.632Z,18.51
2023-05-01T09:55:34.973Z,17.85
2023-05-01T09:58:02.357Z,18.27
2023-05-01T10:00:30.358Z,17.98
2023-05-01T10:02:57.896Z,18.77
2023-05-01T10:05:26.492Z,19.14
2023-05-01T10:08:01.148Z,18.97
2023-05-01T10:10:28.926Z,18.60
2023-05-01T10:12:56.448Z,18.34
2023-05-01T10:15:26.544Z,18.62
2023-05-01T10:17:55.072Z,18.91
2023-05-01T10:20:22.668Z,19.13
2023-05-01T10:22:50.595Z,19.12
2023-05-01T10:25:18.427Z,19.55
2023-05-01T10:27:46.158Z,19.21
2023-05-01T10:30:13.612Z,19.11
2023-05-01T10:32:43.148Z,18.74
2023-05-01T10:35:19.252Z,19.50
2023-05-01T10:37:56.428Z,19.79
2023-05-01T10:40:48.854Z,19.53
2023-05-01T10:43:30.213Z,19.39
2023-05-01T10:46:21.543Z,19.31
2023-05-01T10:48:51.396Z,19.13
2023-05-01T10:51:21.592Z,19.08
2023-05-01T10:54:10.678Z,19.90
2023-05-01T10:56:38.033Z,20.40
2023-05-01T10:59:06.110Z,20.35
2023-05-01T11:01:45.753Z,20.19
2023-05-01T11:04:22.128Z,20.40
2023-05-01T11:07:08.735Z,20.55
2023-05-01T11:09:41.789Z,21.04
2023-05-01T11:12:11.559Z,20.94
2023-05-01T11:15:09.671Z,22.26
2023-05-01T11:17:46.135Z,21.05
2023-05-01T11:20:14.558Z,21.00
2023-05-01T11:22:47.358Z,21.89
2023-05-01T11:25:24.792Z,21.57
2023-05-01T11:27:55.002Z,20.28
2023-05-01T11:30:22.505Z,20.12
2023-05-01T11:32:51.347Z,20.31
2023-05-01T11:35:21.957Z,21.07
2023-05-01T11:37:51.397Z,21.83
2023-05-01T11:40:29.466Z,21.28
2023-05-01T11:43:08.165Z,21.22
2023-05-01T11:45:38.410Z,20.94
2023-05-01T11:48:14.592Z,21.11
2023-05-01T11:50:42.356Z,20.37
2023-05-01T11:53:17.764Z,20.67
2023-05-01T11:55:45.440Z,20.73
2023-05-01T11:58:13.032Z,20.31
2023-05-01T12:00:44.277Z,20.09
2023-05-01T12:03:14.515Z,20.21
2023-05-01T12:05:45.191Z,19.76
2023-05-01T12:08:18.868Z,19.84
2023-05-01T12:10:50.760Z,20.86
2023-05-01T12:13:18.351Z,21.71
2023-05-01T12:15:47.708Z,20.88
2023-05-01T12:18:16.576Z,20.48
2023-05-01T12:20:50.387Z,20.06
2023-05-01T12:23:18.195Z,21.40
2023-05-01T12:25:46.369Z,20.70
2023-05-01T12:28:20.435Z,19.93
2023-05-01T12:30:52.045Z,19.59
2023-05-01T12:33:20.952Z,20.23
2023-05-01T12:35:50.709Z,20.21
2023-05-01T12:38:21.063Z,20.60
2023-05-01T12:40:56.785Z,19.80
2023-05-01T12:43:35.995Z,20.42
2023-05-01T12:46:14.465Z,20.21
2023-05-01T12:48:42.772Z,19.74
2023-05-01T12:51:10.401Z,19.81
2023-05-01T12:53:44.815Z,20.25
2023-05-01T12:56:25.319Z,19.95
2023-05-01T12:58:53.877Z,19.77
2023-05-01T13:01:28.560Z,20.05
2023-05-01T13:03:58.173Z,19.56
2023-05-01T13:06:33.944Z,20.18
2023-05-01T13:09:11.022Z,19.86
2023-05-01T13:11:38.900Z,19.37
2023-05-01T13:14:09.931Z,19.98
2023-05-01T13:16:46.762Z,20.49
2023-05-01T13:19:14.442Z,20.90
2023-05-01T13:21:49.747Z,19.61
2023-05-01T13:24:19.701Z,20.09
2023-05-01T13:26:47.086Z,20.56
2023-05-01T13:29:18.765Z,20.42
2023-05-01T13:31:46.349Z,19.50
2023-05-01T13:34:30.462Z,20.35
2023-05-01T13:37:25.160Z,19.73
2023-05-01T13:40:00.472Z,20.32
2023-05-01T13:42:28.213Z,21.29
2023-05-01T13:44:57.428Z,21.33
2023-05-01T13:47:27.050Z,20.47
2023-05-01T13:49:54.655Z,20.03
2023-05-01T13:52:22.095Z,20.73
2023-05-01T13:54:49.556Z,20.96
2023-05-01T13:57:17.417Z,21.09
2023-05-01T13:59:46.829Z,20.95
2023-05-01T14:02:20.650Z,20.82
2023-05-01T14:04:48.637Z,21.20
2023-05-01T14:07:23.865Z,20.32
2023-05-01T14:09:59.901Z,19.79
2023-05-01T14:12:30.697Z,20.19
2023-05-01T14:15:00.254Z,20.63
2023-05-01T14:17:33.301Z,20.62
2023-05-01T14:20:01.334Z,20.71
2023-05-01T14:22:30.918Z,21.42
2023-05-01T14:24:59.146Z,21.21
2023-05-01T14:27:26.935Z,21.39
2023-05-01T14:29:55.346Z,21.31
2023-05-01T14:32:22.870Z,20.11
2023-05-01T14:34:50.297Z,20.32
2023-05-01T14:37:17.702Z,20.73
2023-05-01T14:39:45.173Z,21.15
2023-05-01T14:42:13.133Z,20.85
2023-05-01T14:44:42.685Z,20.89
2023-05-01T14:47:10.326Z,21.87
2023-05-01T14:49:37.710Z,22.29
2023-05-01T14:52:05.522Z,21.01
2023-05-01T14:54:44.817Z,20.24
2023-05-01T14:57:12.156Z,21.70
2023-05-01T14:59:39.489Z,21.86
2023-05-01T15:02:06.977Z,20.75
2023-05-01T15:04:34.488Z,20.47
2023-05-01T15:07:01.648Z,20.56
2023-05-01T15:09:29.016Z,20.69
2023-05-01T15:11:56.065Z,20.53
2023-05-01T15:14:23.468Z,20.61
2023-05-01T15:16:50.663Z,20.31
2023-05-01T15:19:18.988Z,19.90
2023-05-01T15:21:46.335Z,19.79
2023-05-01T15:24:13.723Z,20.27
2023-05-01T15:26:41.370Z,21.32
2023-05-01T15:29:08.820Z,20.28
2023-05-01T15:31:36.275Z,19.84
2023-05-01T15:34:03.651Z,19.56
2023-05-01T15:36:32.079Z,19.78
2023-05-01T15:38:59.410Z,19.74
2023-05-01T15:41:26.744Z,19.76
2023-05-01T15:43:54.092Z,19.88
2023-05-01T15:46:23.493Z,20.13
2023-05-01T15:48:51.000Z,20.33
2023-05-01T15:51:18.470Z,19.90
2023-05-01T15:53:46.181Z,19.58
2023-05-01T15:56:13.559Z,19.63
2023-05-01T15:58:41.087Z,19.45
2023-05-01T16:01:09.058Z,19.18
2023-05-01T16:03:36.800Z,19.02
2023-05-01T16:06:04.914Z,18.87
2023-05-01T16:08:33.171Z,19.03
2023-05-01T16:11:00.578Z,18.85
2023-05-01T16:13:27.956Z,18.90
2023-05-01T16:15:55.348Z,18.65
2023-05-01T16:18:25.285Z,18.11
2023-05-01T16:20:54.623Z,17.76
2023-05-01T16:23:22.540Z,17.54
2023-05-01T16:25:49.598Z,17.36
2023-05-01T16:28:20.055Z,17.23
2023-05-01T16:30:47.825Z,17.05
2023-05-01T16:33:23.615Z,16.98
2023-05-01T16:35:51.094Z,17.17
2023-05-01T16:38:20.927Z,16.92
2023-05-01T16:40:48.688Z,16.89
2023-05-01T16:43:16.058Z,16.85
2023-05-01T16:45:43.351Z,16.70
2023-05-01T16:48:11.233Z,16.55
2023-05-01T16:50:41.530Z,16.65
2023-05-01T16:53:08.845Z,16.53
2023-05-01T16:55:36.237Z,16.60
2023-05-01T16:58:03.580Z,16.35
2023-05-01T17:00:31.367Z,16.29
2023-05-01T17:03:02.344Z,16.29
2023-05-01T17:05:30.100Z,16.28
2023-05-01T17:07:57.463Z,16.18
2023-05-01T17:10:24.795Z,16.20
2023-05-01T17:12:52.243Z,16.20
2023-05-01T17:15:19.753Z,16.02
2023-05-01T17:17:47.219Z,16.13
2023-05-01T17:20:14.289Z,16.27
2023-05-01T17:22:42.050Z,16.23
2023-05-01T17:25:09.637Z,16.10
2023-05-01T17:27:37.800Z,15.94
2023-05-01T17:30:05.658Z,15.90
2023-05-01T17:32:36.910Z,15.83
2023-05-01T17:35:06.047Z,15.88
2023-05-01T17:37:33.672Z,15.98
2023-05-01T17:40:01.865Z,15.94
2023-05-01T17:42:29.685Z,16.04
2023-05-01T17:44:59.249Z,16.21
2023-05-01T17:47:26.621Z,16.30
2023-05-01T17:49:54.352Z,16.32
2023-05-01T17:52:21.825Z,16.26
2023-05-01T17:54:49.134Z,16.14
2023-05-01T17:57:16.485Z,16.15
2023-05-01T17:59:44.121Z,16.25
2023-05-01T18:02:11.577Z,16.28
2023-05-01T18:04:39.054Z,16.25
2023-05-01T18:07:06.576Z,16.19
2023-05-01T18:09:33.941Z,16.13
2023-05-01T18:12:02.297Z,16.15
2023-05-01T18:14:30.233Z,16.14
2023-05-01T18:16:58.070Z,16.07
2023-05-01T18:19:25.475Z,15.98
2023-05-01T18:21:52.794Z,15.91
2023-05-01T18:24:20.159Z,15.82
2023-05-01T18:26:47.576Z,15.91
2023-05-01T18:29:15.182Z,15.89
2023-05-01T18:31:42.586Z,15.81
2023-05-01T18:34:12.169Z,15.81
2023-05-01T18:36:39.511Z,15.80
2023-05-01T18:39:06.910Z,15.77
2023-05-01T18:41:34.343Z,15.77
2023-05-01T18:44:02.591Z,15.72
2023-05-01T18:46:30.019Z,15.73
2023-05-01T18:48:58.140Z,15.64
2023-05-01T18:51:25.721Z,15.54
2023-05-01T18:53:53.134Z,15.52
2023-05-01T18:56:20.987Z,15.38
2023-05-01T18:58:48.385Z,15.39
2023-05-01T19:01:15.835Z,15.40
2023-05-01T19:03:43.234Z,15.29
2023-05-01T19:06:10.851Z,15.18
2023-05-01T19:08:38.243Z,15.16
2023-05-01T19:11:06.116Z,15.12
2023-05-01T19:13:33.882Z,15.08
2023-05-01T19:16:01.335Z,15.03
2023-05-01T19:18:28.736Z,14.93
2023-05-01T19:20:56.254Z,14.94
2023-05-01T19:23:23.704Z,14.87
2023-05-01T19:25:51.106Z,14.85
2023-05-01T19:28:18.576Z,14.85
2023-05-01T19:31:39.145Z,14.80
2023-05-01T19:34:06.594Z,14.66
2023-05-01T19:36:33.935Z,14.68
2023-05-01T19:39:04.414Z,14.75
2023-05-01T19:41:33.199Z,14.84
2023-05-01T19:44:01.042Z,14.89
2023-05-01T19:46:28.926Z,14.80
2023-05-01T19:48:56.475Z,14.68
2023-05-01T19:51:23.980Z,14.70
2023-05-01T19:53:51.301Z,14.75
2023-05-01T19:56:18.970Z,14.59
2023-05-01T19:58:46.391Z,14.59
2023-05-01T20:01:13.831Z,14.59
2023-05-01T20:03:41.347Z,14.46
2023-05-01T20:06:09.123Z,14.28
2023-05-01T20:08:36.577Z,14.15
2023-05-01T20:11:03.955Z,14.10
2023-05-01T20:13:31.491Z,14.06
2023-05-01T20:15:58.888Z,14.07
2023-05-01T20:18:26.251Z,14.04
2023-05-01T20:20:53.691Z,14.18
2023-05-01T20:23:23.395Z,14.13
2023-05-01T20:25:53.944Z,14.13
2023-05-01T20:28:21.458Z,14.05
2023-05-01T20:30:49.564Z,14.10
2023-05-01T20:33:17.752Z,14.10
2023-05-01T20:35:46.762Z,14.07
2023-05-01T20:38:14.177Z,14.12
2023-05-01T20:40:42.311Z,13.95
2023-05-01T20:43:09.697Z,13.93
2023-05-01T20:45:37.696Z,13.99
2023-05-01T20:48:05.195Z,13.95
2023-05-01T20:50:32.578Z,13.89
2023-05-01T20:53:00.130Z,13.81
2023-05-01T20:55:28.207Z,13.88
2023-05-01T20:57:56.075Z,13.91
2023-05-01T21:00:23.539Z,13.76
2023-05-01T21:02:52.900Z,13.67
2023-05-01T21:05:20.460Z,13.58
2023-05-01T21:07:48.367Z,13.52
2023-05-01T21:10:16.704Z,13.55
2023-05-01T21:12:44.192Z,13.63
2023-05-01T21:15:12.061Z,13.53
2023-05-01T21:17:40.670Z,13.55
2023-05-01T21:20:16.794Z,13.53
2023-05-01T21:22:45.740Z,13.47
2023-05-01T21:25:17.870Z,13.46
2023-05-01T21:27:45.277Z,13.48
2023-05-01T21:30:16.155Z,13.42
2023-05-01T21:32:44.303Z,13.34
2023-05-01T21:35:13.873Z,13.32
2023-05-01T21:37:44.811Z,13.32
2023-05-01T21:40:14.646Z,13.29
2023-05-01T21:42:42.238Z,13.27
2023-05-01T21:45:14.691Z,13.28
2023-05-01T21:47:51.701Z,13.25
2023-05-01T21:50:20.695Z,13.30
2023-05-01T21:52:49.913Z,13.26
2023-05-01T21:55:23.493Z,13.24
2023-05-01T21:57:51.003Z,13.21
2023-05-01T22:00:19.280Z,13.13
2023-05-01T22:02:49.182Z,13.14
2023-05-01T22:05:18.901Z,13.12
2023-05-01T22:07:47.413Z,13.08
2023-05-01T22:10:18.772Z,13.05
2023-05-01T22:12:47.104Z,13.01
2023-05-01T22:15:15.691Z,13.03
2023-05-01T22:17:43.684Z,13.03
2023-05-01T22:20:11.673Z,13.01
2023-05-01T22:22:41.259Z,12.99
2023-05-01T22:25:10.082Z,12.94
2023-05-01T22:27:37.777Z,12.95
2023-05-01T22:30:06.348Z,12.80
2023-05-01T22:32:34.002Z,12.86
2023-05-01T22:35:01.534Z,12.76
2023-05-01T22:37:28.954Z,12.63
2023-05-01T22:39:56.410Z,12.68
2023-05-01T22:42:23.736Z,12.65
2023-05-01T22:44:51.129Z,12.77
2023-05-01T22:47:18.704Z,12.76
2023-05-01T22:49:46.122Z,12.55
2023-05-01T22:52:13.482Z,12.57
2023-05-01T22:54:40.833Z,12.57
2023-05-01T22:57:08.304Z,12.50
2023-05-01T22:59:35.858Z,12.46
2023-05-01T23:02:05.021Z,12.53
2023-05-01T23:04:32.611Z,12.48
2023-05-01T23:07:00.011Z,12.34
2023-05-01T23:09:28.586Z,12.36
2023-05-01T23:11:55.952Z,12.38
2023-05-01T23:14:25.450Z,12.22
2023-05-01T23:16:52.860Z,12.26
2023-05-01T23:19:23.587Z,12.07
2023-05-01T23:22:18.041Z,11.99
2023-05-01T23:24:51.033Z,12.02
2023-05-01T23:27:19.335Z,12.14
2023-05-01T23:29:58.100Z,11.93
2023-05-01T23:32:31.125Z,11.94
2023-05-01T23:35:23.890Z,12.03
2023-05-01T23:37:53.031Z,12.04
2023-05-01T23:40:20.689Z,11.99
2023-05-01T23:42:48.146Z,11.89
2023-05-01T23:45:16.797Z,11.91
2023-05-01T23:47:44.196Z,11.85
2023-05-01T23:50:11.692Z,11.89
2023-05-01T23:52:39.118Z,11.85
2023-05-01T23:55:06.664Z,11.96
2023-05-01T23:57:34.013Z,11.90
